CST,Max TemperatureF,Mean TemperatureF,Min TemperatureF,Max Dew PointF,MeanDew PointF,Min DewpointF,Max Humidity, Mean Humidity, Min Humidity, Max Sea Level PressureIn, Mean Sea Level PressureIn, Min Sea Level PressureIn, Max VisibilityMiles, Mean VisibilityMiles, Min VisibilityMiles, Max Wind SpeedMPH, Mean Wind SpeedMPH, Max Gust SpeedMPH,PrecipitationIn, CloudCover, Events, WindDirDegrees
2012-11-1,49,41,32,39,31,24,93,69,45,30.11,30.04,29.99,10,9,5,17,9,22,0.00,3,,26
2012-11-2,42,37,31,29,26,24,72,64,55,30.17,30.09,30.03,10,10,10,14,8,16,0.00,5,,88
2012-11-3,49,37,24,36,31,25,100,78,56,30.25,30.20,30.17,10,10,10,9,2,12,0.00,6,,275
2012-11-4,45,38,30,40,36,30,100,91,68,30.21,30.14,30.07,10,6,2,12,6,,0.13,8,Rain,36
2012-11-5,39,37,34,36,33,32,97,87,75,30.22,30.13,29.94,10,8,4,20,9,26,T,8,Rain,316
2012-11-6,51,42,33,36,33,30,92,71,50,30.10,30.00,29.89,10,10,9,32,17,41,T,2,Rain,304
2012-11-7,51,38,25,32,30,25,92,71,50,30.18,30.08,29.95,10,10,9,18,8,25,0.00,0,,177
2012-11-8,58,48,38,37,33,30,85,63,40,30.01,29.93,29.86,10,10,10,22,12,28,0.00,2,,71
2012-11-9,53,45,36,43,38,34,92,78,63,29.98,29.87,29.68,10,8,4,18,13,23,0.00,7,,75
2012-11-10,54,42,30,52,43,27,96,85,74,29.72,29.56,29.47,10,7,0,21,10,32,0.22,8,Fog-Rain-Thunderstorm,251
2012-11-11,30,24,18,25,13,9,88,69,50,30.11,29.97,29.75,10,10,9,28,17,33,T,4,Snow,296
2012-11-12,33,25,16,16,13,10,84,64,43,30.37,30.23,30.03,10,10,9,28,12,35,T,0,Snow,280
2012-11-13,46,32,17,26,20,13,80,57,34,30.35,30.30,30.24,10,10,10,14,4,16,0.00,3,,186
2012-11-14,52,36,20,29,26,20,96,68,39,30.30,30.22,30.13,10,10,10,14,5,17,0.00,1,,187
2012-11-15,49,34,18,31,25,15,92,71,49,30.52,30.36,30.13,10,10,10,14,6,18,0.00,0,,344
2012-11-16,48,31,14,33,23,11,96,69,42,30.51,30.38,30.23,10,10,10,20,10,28,0.00,0,,162
2012-11-17,58,49,40,37,34,32,73,58,43,30.22,30.13,30.06,10,10,10,28,16,35,0.00,0,,178
2012-11-18,59,49,39,36,33,30,70,55,33,30.06,30.02,29.97,10,10,10,20,13,28,0.00,0,,172
2012-11-19,58,44,30,39,35,30,85,69,49,30.18,30.05,29.94,10,10,10,16,7,22,0.00,0,,287
2012-11-20,59,40,21,34,29,20,96,62,29,30.24,30.13,29.99,10,9,6,17,7,22,0.00,0,,183
2012-11-21,70,56,42,40,35,30,73,48,23,29.99,29.83,29.66,10,10,10,24,11,30,0.00,0,,198
2012-11-22,55,41,26,37,30,16,81,66,54,30.29,29.95,29.63,10,10,9,37,18,48,T,5,Rain-Snow,304
2012-11-23,27,20,13,18,11,8,81,66,46,30.54,30.45,30.24,10,10,9,35,15,45,T,3,Snow,316
2012-11-24,38,26,14,22,15,11,80,60,40,30.38,30.06,29.87,10,10,10,25,8,32,0.00,3,,169
2012-11-25,36,32,27,27,23,21,92,74,56,30.24,30.05,29.91,10,10,10,15,8,20,0.00,5,,335
2012-11-26,28,21,14,20,10,7,75,65,55,30.51,30.42,30.25,10,10,9,16,6,20,T,3,Snow,344
2012-11-27,38,27,15,25,18,8,92,76,59,30.41,30.26,30.10,10,10,10,14,6,17,0.00,0,,241
2012-11-28,44,28,12,25,19,10,96,71,45,30.40,30.23,30.04,10,10,9,20,7,25,0.00,0,,181
2012-11-29,46,31,15,27,22,13,92,69,45,30.07,30.02,29.96,10,10,9,16,6,20,0.00,0,,57
2012-11-30,42,31,19,32,26,18,92,77,62,30.17,30.07,29.95,10,7,5,15,7,20,0.00,0,,92